Ana Sayfa
METAR-TAF:

METAR-TAF

Havaalanları :

Zamboanga, Filipinler

Enlem: 06-54N, Boylam: 122-04E, yükseklik: 5 m

Güncel hava durumu gözlemi

Rapor saat 21:00 UTC de 50 dakika önce yapıldı.
Rüzgar değişken yönden 1 kt
Sıcaklık 24°C
Nem 89%
Basınç 1010 hPa
Görüş mesafesi 10 km veya daha fazla
1700 ft yükseklikte az bulutlu
9000 ft yükseklikte parçalı bulutlu

METAR: RPMZ 242100Z VRB01KT 9999 FEW017 SCT090 24/22 Q1010 RMK A2983

Saat: 05:50 (21:50 UTC)

Tahmin

Rapor saat 17:00 UTC de 4 saat ve 50 dakika önce yapıldı.
Ayın 24'si saat 18 UTC'den ayın 25'si saat 18 UTC'ye kadar geçerli Tahmin
Rüzgar batıdan 6 kt
1700 ft yükseklikte az bulutlu
30000 ft yükseklikte parçalı bulutlu
Geçici
ayın 24'si saat 18 UTC'den ayın 24'si saat 24 UTC'ye kadar
Rüzgar doğu/kuzeydoğudan 4 kt
1700 ft yükseklikte az bulutlu
9000 ft yükseklikte parçalı bulutlu

TAF: RPMZ 241700Z 2418/2518 26006KT 999 FEW017 SCT300 TEMPO 2418/2424 06004KT FEW017 SCT090

4.000'den fazla havaalanı için hava durumu gözlemleri ve tahminleri (METAR ve TAF raporları).

Kullanılabilir istasyonlar harita üzerinde sarı ve kırmızı noktalarla gösterilir.

İstasyonun adını görmek için fareyi noktanın üzerinde gezdirin.

Sonrasında hava gözlem ve tahminlerini görmek için tıklayın.

Haritayı değiştirmek için: yaklaştırmak için siyah artı işaretli yeşil düğmeye ve uzaklaştırmak için de eksi işaretli düğmeye hızla tıklayın; bitişik haritalar için yeşil okları kullanın.


METAR-TAF: